createdAt,value
2017-05-19T00:01:28.617Z,16.80
2017-05-19T00:03:56.055Z,16.80
2017-05-19T00:06:22.757Z,16.90
2017-05-19T00:08:49.498Z,16.90
2017-05-19T00:11:16.208Z,16.90
2017-05-19T00:13:42.885Z,16.70
2017-05-19T00:16:09.939Z,16.70
2017-05-19T00:18:36.622Z,16.80
2017-05-19T00:21:03.312Z,16.90
2017-05-19T00:23:30.020Z,16.90
2017-05-19T00:25:56.694Z,16.90
2017-05-19T00:28:23.392Z,16.80
2017-05-19T00:30:50.087Z,16.80
2017-05-19T00:33:16.790Z,16.90
2017-05-19T00:35:44.238Z,17.00
2017-05-19T00:38:10.922Z,17.20
2017-05-19T00:40:37.599Z,17.10
2017-05-19T00:43:04.306Z,17.10
2017-05-19T00:45:31.039Z,17.10
2017-05-19T00:47:57.743Z,16.90
2017-05-19T00:50:25.162Z,16.80
2017-05-19T00:52:51.843Z,16.80
2017-05-19T00:55:19.284Z,16.80
2017-05-19T00:57:46.059Z,16.80
2017-05-19T01:00:12.784Z,16.90
2017-05-19T01:02:40.263Z,16.90
2017-05-19T01:05:06.911Z,16.90
2017-05-19T01:07:33.601Z,16.90
2017-05-19T01:10:00.292Z,17.00
2017-05-19T01:12:26.990Z,17.20
2017-05-19T01:14:54.447Z,17.20
2017-05-19T01:17:21.139Z,17.30
2017-05-19T01:19:47.954Z,17.10
2017-05-19T01:22:15.380Z,16.90
2017-05-19T01:24:42.847Z,16.80
2017-05-19T01:27:09.523Z,17.00
2017-05-19T01:29:36.202Z,17.00
2017-05-19T01:32:02.908Z,17.10
2017-05-19T01:34:29.599Z,17.10
2017-05-19T01:36:56.424Z,17.10
2017-05-19T01:39:23.113Z,17.00
2017-05-19T01:41:50.548Z,17.00
2017-05-19T01:44:17.241Z,17.00
2017-05-19T01:46:43.914Z,17.00
2017-05-19T01:49:10.614Z,17.10
2017-05-19T01:51:37.295Z,17.20
2017-05-19T01:54:03.970Z,17.30
2017-05-19T01:56:31.400Z,17.20
2017-05-19T01:58:58.907Z,17.30
2017-05-19T02:01:25.615Z,17.30
2017-05-19T02:03:53.039Z,17.20
2017-05-19T02:06:19.710Z,17.10
2017-05-19T02:08:47.144Z,17.00
2017-05-19T02:11:13.831Z,16.90
2017-05-19T02:13:40.534Z,17.00
2017-05-19T02:16:07.228Z,16.90
2017-05-19T02:18:33.935Z,16.80
2017-05-19T02:21:01.380Z,16.80
2017-05-19T02:23:28.073Z,16.90
2017-05-19T02:25:54.769Z,16.90
2017-05-19T02:28:22.198Z,16.80
2017-05-19T02:30:48.886Z,16.70
2017-05-19T02:33:15.579Z,16.80
2017-05-19T02:35:42.275Z,16.80
2017-05-19T02:38:08.983Z,16.80
2017-05-19T02:40:36.410Z,16.70
2017-05-19T02:43:03.107Z,16.60
2017-05-19T02:45:29.813Z,16.50
2017-05-19T02:47:56.490Z,16.40
2017-05-19T02:50:23.195Z,16.40
2017-05-19T02:52:49.876Z,16.30
2017-05-19T02:55:16.570Z,16.40
2017-05-19T02:57:43.264Z,16.30
2017-05-19T03:00:09.950Z,16.30
2017-05-19T03:02:36.634Z,16.30
2017-05-19T03:05:03.369Z,16.40
2017-05-19T03:07:30.052Z,16.60
2017-05-19T03:09:56.735Z,16.60
2017-05-19T03:12:24.188Z,16.60
2017-05-19T03:14:51.615Z,16.50
2017-05-19T03:17:18.313Z,16.50
2017-05-19T03:19:45.021Z,16.60
2017-05-19T03:22:12.459Z,16.60
2017-05-19T03:24:39.168Z,16.40
2017-05-19T03:27:06.072Z,16.50
2017-05-19T03:29:33.514Z,16.50
2017-05-19T03:35:07.730Z,16.60
2017-05-19T03:37:34.423Z,16.70
2017-05-19T03:40:01.108Z,16.50
2017-05-19T03:42:27.800Z,16.30
2017-05-19T03:44:54.492Z,16.40
2017-05-19T03:47:21.203Z,16.50
2017-05-19T03:49:47.875Z,16.40
2017-05-19T03:52:14.559Z,16.50
2017-05-19T03:54:41.247Z,16.60
2017-05-19T03:57:07.927Z,16.60
2017-05-19T03:59:35.376Z,16.60
2017-05-19T04:02:02.050Z,16.60
2017-05-19T04:04:28.743Z,16.50
2017-05-19T04:06:55.434Z,16.30
2017-05-19T04:09:22.119Z,16.10
2017-05-19T04:11:48.819Z,16.00
2017-05-19T04:14:15.503Z,16.00
2017-05-19T04:16:42.191Z,16.10
2017-05-19T04:19:08.896Z,16.20
2017-05-19T04:21:35.607Z,16.40
2017-05-19T04:24:02.287Z,16.30
2017-05-19T04:26:29.712Z,16.30
2017-05-19T04:28:56.410Z,16.20
2017-05-19T04:31:23.112Z,16.20
2017-05-19T04:33:49.816Z,16.20
2017-05-19T04:36:16.499Z,16.20
2017-05-19T04:38:43.921Z,16.10
2017-05-19T04:41:10.606Z,16.20
2017-05-19T04:43:38.052Z,16.20
2017-05-19T04:46:05.507Z,16.20
2017-05-19T04:48:32.196Z,16.30
2017-05-19T04:50:58.876Z,16.30
2017-05-19T04:53:25.570Z,16.40
2017-05-19T04:55:52.265Z,16.40
2017-05-19T04:58:18.967Z,16.60
2017-05-19T05:00:45.648Z,16.70
2017-05-19T05:03:12.323Z,16.90
2017-05-19T05:05:39.012Z,17.10
2017-05-19T05:08:05.690Z,17.30
2017-05-19T05:10:32.448Z,17.40
2017-05-19T05:12:59.131Z,17.60
2017-05-19T05:15:25.911Z,17.70
2017-05-19T05:17:53.387Z,17.80
2017-05-19T05:20:20.066Z,17.90
2017-05-19T05:22:46.782Z,18.00
2017-05-19T05:25:13.458Z,18.20
2017-05-19T05:27:40.143Z,18.30
2017-05-19T05:30:06.823Z,18.40
2017-05-19T05:32:33.503Z,18.60
2017-05-19T05:35:00.954Z,18.90
2017-05-19T05:37:28.370Z,19.00
2017-05-19T05:39:55.050Z,19.30
2017-05-19T05:42:22.472Z,19.60
2017-05-19T05:44:49.164Z,19.80
2017-05-19T05:47:15.880Z,19.80
2017-05-19T05:49:42.567Z,19.80
2017-05-19T05:52:09.243Z,19.90
2017-05-19T05:54:36.239Z,19.80
2017-05-19T05:57:02.917Z,19.80
2017-05-19T05:59:30.612Z,19.90
2017-05-19T06:01:57.409Z,20.00
2017-05-19T06:04:24.088Z,20.10
2017-05-19T06:06:50.767Z,20.20
2017-05-19T06:09:17.446Z,20.30
2017-05-19T06:11:44.150Z,20.30
2017-05-19T06:14:10.829Z,20.40
2017-05-19T06:16:37.506Z,20.50
2017-05-19T06:19:04.923Z,20.50
2017-05-19T06:21:31.603Z,20.70
2017-05-19T06:23:59.051Z,20.80
2017-05-19T06:26:26.495Z,20.80
2017-05-19T06:28:53.172Z,20.70
2017-05-19T06:31:19.879Z,20.70
2017-05-19T06:33:46.559Z,20.60
2017-05-19T06:36:13.272Z,20.40
2017-05-19T06:38:40.691Z,20.30
2017-05-19T06:41:07.392Z,20.10
2017-05-19T06:43:34.071Z,20.00
2017-05-19T06:46:00.762Z,19.80
2017-05-19T06:48:28.232Z,19.70
2017-05-19T06:50:54.914Z,19.70
2017-05-19T06:53:21.618Z,19.70
2017-05-19T06:55:48.299Z,19.60
2017-05-19T06:58:14.971Z,19.70
2017-05-19T07:00:42.435Z,19.70
2017-05-19T07:03:09.864Z,19.70
2017-05-19T07:05:36.548Z,19.80
2017-05-19T07:08:03.233Z,20.00
2017-05-19T07:10:29.913Z,20.10
2017-05-19T07:12:56.636Z,20.30
2017-05-19T07:15:23.314Z,20.30
2017-05-19T07:17:50.012Z,20.40
2017-05-19T07:20:16.703Z,20.30
2017-05-19T07:22:43.371Z,20.20
2017-05-19T07:25:10.351Z,20.20
2017-05-19T07:27:37.771Z,20.20
2017-05-19T07:30:04.754Z,20.20
2017-05-19T07:32:32.204Z,20.20
2017-05-19T07:34:58.884Z,20.00
2017-05-19T07:37:25.567Z,19.90
2017-05-19T07:39:52.287Z,20.00
2017-05-19T07:42:18.980Z,19.80
2017-05-19T07:44:46.451Z,19.80
2017-05-19T07:47:13.157Z,19.80
2017-05-19T07:49:39.842Z,19.70
2017-05-19T07:52:06.515Z,19.50
2017-05-19T07:54:33.214Z,19.40
2017-05-19T07:56:59.891Z,19.40
2017-05-19T07:59:26.580Z,19.20
2017-05-19T08:01:54.034Z,19.10
2017-05-19T08:04:21.455Z,19.10
2017-05-19T08:06:48.147Z,19.10
2017-05-19T08:09:14.860Z,19.00
2017-05-19T08:11:41.550Z,18.90
2017-05-19T08:14:08.223Z,18.80
2017-05-19T08:16:34.939Z,18.60
2017-05-19T08:19:01.624Z,18.60
2017-05-19T08:21:28.303Z,18.50
2017-05-19T08:23:55.004Z,18.40
2017-05-19T08:26:21.692Z,18.20
2017-05-19T08:28:48.373Z,18.20
2017-05-19T08:31:15.098Z,18.20
2017-05-19T08:33:41.780Z,18.10
2017-05-19T08:36:09.202Z,18.00
2017-05-19T08:38:35.922Z,18.00
2017-05-19T08:41:02.611Z,18.00
2017-05-19T08:43:30.271Z,17.90
2017-05-19T08:45:57.735Z,17.90
2017-05-19T08:48:25.155Z,17.90
2017-05-19T08:50:51.854Z,18.00
2017-05-19T08:53:18.563Z,18.10
2017-05-19T08:55:45.555Z,18.20
2017-05-19T08:58:12.235Z,18.10
2017-05-19T09:00:38.930Z,18.10
2017-05-19T09:03:05.614Z,18.10
2017-05-19T09:05:32.290Z,18.10
2017-05-19T09:07:59.728Z,18.10
2017-05-19T09:10:26.407Z,18.00
2017-05-19T09:12:53.078Z,18.00
2017-05-19T09:15:19.788Z,18.00
2017-05-19T09:17:46.479Z,18.10
2017-05-19T09:20:13.159Z,18.20
2017-05-19T09:22:39.891Z,18.20
2017-05-19T09:25:06.574Z,18.40
2017-05-19T09:27:33.256Z,18.50
2017-05-19T09:30:00.716Z,18.40
2017-05-19T09:32:28.148Z,18.40
2017-05-19T09:34:54.832Z,18.40
2017-05-19T09:37:21.543Z,18.40
2017-05-19T09:39:48.229Z,18.50
2017-05-19T09:42:14.923Z,18.60
2017-05-19T09:44:41.619Z,18.70
2017-05-19T09:47:08.300Z,18.70
2017-05-19T09:49:35.034Z,18.80
2017-05-19T09:52:01.806Z,18.90
2017-05-19T09:54:29.228Z,19.00
2017-05-19T09:56:55.901Z,19.10
2017-05-19T09:59:22.615Z,19.20
2017-05-19T10:01:56.207Z,19.20
2017-05-19T10:04:22.907Z,19.20
2017-05-19T10:06:49.603Z,19.20
2017-05-19T10:09:16.287Z,19.20
2017-05-19T10:11:42.983Z,19.30
2017-05-19T10:14:09.672Z,19.30
2017-05-19T10:16:36.360Z,19.10
2017-05-19T10:19:03.067Z,19.00
2017-05-19T10:21:29.748Z,18.90
2017-05-19T10:23:56.432Z,19.00
2017-05-19T10:26:23.128Z,18.90
2017-05-19T10:28:49.808Z,18.90
2017-05-19T10:31:16.520Z,19.00
2017-05-19T10:33:44.384Z,19.10
2017-05-19T10:36:11.803Z,19.20
2017-05-19T10:38:38.502Z,19.10
2017-05-19T10:41:05.176Z,19.00
2017-05-19T10:43:31.867Z,18.80
2017-05-19T10:45:59.292Z,18.60
2017-05-19T10:48:25.984Z,18.50
2017-05-19T10:50:52.658Z,18.60
2017-05-19T10:53:19.363Z,18.70
2017-05-19T10:55:46.039Z,18.70
2017-05-19T10:58:12.718Z,18.70
2017-05-19T11:00:40.172Z,18.50
2017-05-19T11:03:07.624Z,18.60
2017-05-19T11:05:34.306Z,18.70
2017-05-19T11:08:01.016Z,18.50
2017-05-19T11:10:28.431Z,18.30
2017-05-19T11:12:55.107Z,18.20
2017-05-19T11:15:21.806Z,18.10
2017-05-19T11:17:48.483Z,18.10
2017-05-19T11:20:15.163Z,18.20
2017-05-19T11:22:41.863Z,18.40
2017-05-19T11:25:08.555Z,18.40
2017-05-19T11:27:35.233Z,18.50
2017-05-19T11:30:01.950Z,18.60
2017-05-19T11:32:28.644Z,18.80
2017-05-19T11:34:56.062Z,19.00
2017-05-19T11:37:22.779Z,19.20
2017-05-19T11:39:49.479Z,19.40
2017-05-19T11:42:16.948Z,19.80
2017-05-19T11:44:43.668Z,19.90
2017-05-19T11:47:11.091Z,19.70
2017-05-19T11:49:37.778Z,19.60
2017-05-19T11:52:05.225Z,19.10
2017-05-19T11:54:32.646Z,19.00
2017-05-19T11:56:59.322Z,18.90
2017-05-19T11:59:26.037Z,18.90
2017-05-19T12:01:52.730Z,18.70
2017-05-19T12:04:19.403Z,18.50
2017-05-19T12:06:46.139Z,18.30
2017-05-19T12:09:12.820Z,18.30
2017-05-19T12:11:39.478Z,18.20
2017-05-19T12:14:06.920Z,18.00
2017-05-19T12:16:33.592Z,18.00
2017-05-19T12:19:00.332Z,18.00
2017-05-19T12:21:27.019Z,18.00
2017-05-19T12:23:53.694Z,18.00
2017-05-19T12:26:21.107Z,18.00
2017-05-19T12:29:19.393Z,17.90
2017-05-19T12:31:46.121Z,18.00
2017-05-19T12:34:12.823Z,18.00
2017-05-19T12:36:39.520Z,18.00
2017-05-19T12:39:07.240Z,18.10
2017-05-19T12:41:33.944Z,18.20
2017-05-19T12:44:00.650Z,18.40
2017-05-19T12:46:27.334Z,18.40
2017-05-19T12:48:54.023Z,18.50
2017-05-19T12:51:20.730Z,18.40
2017-05-19T12:53:47.415Z,18.30
2017-05-19T12:56:14.122Z,18.20
2017-05-19T12:58:40.824Z,18.00
2017-05-19T13:01:07.520Z,17.90
2017-05-19T13:03:34.223Z,17.80
2017-05-19T13:06:00.907Z,17.70
2017-05-19T13:08:27.600Z,17.70
2017-05-19T13:10:54.320Z,17.60
2017-05-19T13:13:21.006Z,17.50
2017-05-19T13:15:47.691Z,17.50
2017-05-19T13:18:13.647Z,17.50
2017-05-19T13:20:40.339Z,17.30
2017-05-19T13:23:07.051Z,17.50
2017-05-19T13:25:33.735Z,17.70
2017-05-19T13:28:00.419Z,17.70
2017-05-19T13:30:27.126Z,17.50
2017-05-19T13:32:53.835Z,17.30
2017-05-19T13:35:20.552Z,17.20
2017-05-19T13:37:47.238Z,17.10
2017-05-19T13:40:13.931Z,17.00
2017-05-19T13:42:40.627Z,16.80
2017-05-19T13:45:07.307Z,16.70
2017-05-19T13:47:34.021Z,16.80
2017-05-19T13:50:00.706Z,16.60
2017-05-19T13:52:27.401Z,16.50
2017-05-19T13:54:54.550Z,16.40
2017-05-19T13:57:21.226Z,16.20
2017-05-19T13:59:47.944Z,16.10
2017-05-19T14:02:14.630Z,16.10
2017-05-19T14:04:41.331Z,16.00
2017-05-19T14:07:08.044Z,15.90
2017-05-19T14:09:34.739Z,15.80
2017-05-19T14:12:01.450Z,15.80
2017-05-19T14:14:28.133Z,15.70
2017-05-19T14:16:54.835Z,15.80
2017-05-19T14:19:21.530Z,15.70
2017-05-19T14:21:48.217Z,15.80
2017-05-19T14:24:15.092Z,15.80
2017-05-19T14:26:42.076Z,15.90
2017-05-19T14:29:08.779Z,15.90
2017-05-19T14:31:35.475Z,15.90
2017-05-19T14:34:02.159Z,15.90
2017-05-19T14:36:28.872Z,16.20
2017-05-19T14:38:55.555Z,16.30
2017-05-19T14:41:22.248Z,16.40
2017-05-19T14:43:49.175Z,16.40
2017-05-19T14:46:15.860Z,16.40
2017-05-19T14:48:42.579Z,16.40
2017-05-19T14:51:09.267Z,16.20
2017-05-19T14:53:35.965Z,16.10
2017-05-19T14:56:02.664Z,16.10
2017-05-19T14:58:29.343Z,16.00
2017-05-19T15:00:56.059Z,15.80
2017-05-19T15:03:22.743Z,15.60
2017-05-19T15:05:49.438Z,15.70
2017-05-19T15:08:16.382Z,15.60
2017-05-19T15:10:43.062Z,15.60
2017-05-19T15:13:10.071Z,15.50
2017-05-19T15:15:36.754Z,15.20
2017-05-19T15:18:03.451Z,15.10
2017-05-19T15:20:30.148Z,15.20
2017-05-19T15:22:56.834Z,15.20
2017-05-19T15:25:23.550Z,15.30
2017-05-19T15:27:50.239Z,15.20
2017-05-19T15:30:16.918Z,15.10
2017-05-19T15:32:43.624Z,15.10
2017-05-19T15:35:10.328Z,15.10
2017-05-19T15:37:37.028Z,15.00
2017-05-19T15:40:03.757Z,14.90
2017-05-19T15:42:30.494Z,14.90
2017-05-19T15:44:57.191Z,14.90
2017-05-19T15:47:24.286Z,15.00
2017-05-19T15:49:51.008Z,14.80
2017-05-19T15:52:17.717Z,14.70
2017-05-19T15:54:44.409Z,14.70
2017-05-19T15:57:11.111Z,14.80
2017-05-19T15:59:37.824Z,14.80
2017-05-19T16:02:04.523Z,14.70
2017-05-19T16:04:31.224Z,14.70
2017-05-19T16:06:57.906Z,14.70
2017-05-19T16:09:24.607Z,14.60
2017-05-19T16:11:51.316Z,14.60
2017-05-19T16:14:18.041Z,14.50
2017-05-19T16:16:44.740Z,14.60
2017-05-19T16:19:11.442Z,14.60
2017-05-19T16:21:38.135Z,14.70
2017-05-19T16:24:04.823Z,14.60
2017-05-19T16:26:31.544Z,14.60
2017-05-19T16:28:58.231Z,14.60
2017-05-19T16:31:24.940Z,14.50
2017-05-19T16:33:51.650Z,14.30
2017-05-19T16:36:18.351Z,14.20
2017-05-19T16:38:45.084Z,14.10
2017-05-19T16:41:11.781Z,14.00
2017-05-19T16:43:38.485Z,14.00
2017-05-19T16:46:05.199Z,14.00
2017-05-19T16:48:31.894Z,14.00
2017-05-19T16:50:58.598Z,14.00
2017-05-19T16:53:25.283Z,13.90
2017-05-19T16:55:51.963Z,13.90
2017-05-19T16:58:25.531Z,13.90
2017-05-19T17:00:52.227Z,13.90
2017-05-19T17:03:18.946Z,13.80
2017-05-19T17:05:45.647Z,13.80
2017-05-19T17:08:12.333Z,13.70
2017-05-19T17:10:39.050Z,13.80
2017-05-19T17:13:05.731Z,13.80
2017-05-19T17:15:32.415Z,13.80
2017-05-19T17:17:59.232Z,13.80
2017-05-19T17:20:25.915Z,13.80
2017-05-19T17:22:52.599Z,13.70
2017-05-19T17:25:19.303Z,13.70
2017-05-19T17:27:46.208Z,13.70
2017-05-19T17:30:12.914Z,13.70
2017-05-19T17:32:39.668Z,13.80
2017-05-19T17:35:06.355Z,13.80
2017-05-19T17:37:33.060Z,13.80
2017-05-19T17:39:59.759Z,13.80
2017-05-19T17:42:26.471Z,13.70
2017-05-19T17:44:53.164Z,13.70
2017-05-19T17:47:19.112Z,13.70
2017-05-19T17:49:45.820Z,13.80
2017-05-19T17:52:12.763Z,13.80
2017-05-19T17:54:39.484Z,13.70
2017-05-19T17:57:06.184Z,13.80
2017-05-19T17:59:32.891Z,13.70
2017-05-19T18:01:59.585Z,13.70
2017-05-19T18:04:26.288Z,13.70
2017-05-19T18:06:53.011Z,13.60
2017-05-19T18:09:19.706Z,13.50
2017-05-19T18:11:46.414Z,13.40
2017-05-19T18:14:13.147Z,13.30
2017-05-19T18:16:39.847Z,13.40
2017-05-19T18:19:06.579Z,13.40
2017-05-19T18:21:33.275Z,13.40
2017-05-19T18:23:59.967Z,13.40
2017-05-19T18:26:26.679Z,13.30
2017-05-19T18:28:53.375Z,13.40
2017-05-19T18:31:20.111Z,13.30
2017-05-19T18:33:46.813Z,13.30
2017-05-19T18:36:13.508Z,13.30
2017-05-19T18:38:40.247Z,13.30
2017-05-19T18:41:06.940Z,13.20
2017-05-19T18:43:33.655Z,13.20
2017-05-19T18:46:00.355Z,13.10
2017-05-19T18:48:27.048Z,13.00
2017-05-19T18:50:53.764Z,13.00
2017-05-19T18:53:20.451Z,13.00
2017-05-19T18:55:47.165Z,13.00
2017-05-19T18:58:13.866Z,13.00
2017-05-19T19:00:40.567Z,12.90
2017-05-19T19:03:07.265Z,13.00
2017-05-19T19:05:33.972Z,12.90
2017-05-19T19:08:00.687Z,12.90
2017-05-19T19:10:27.382Z,12.90
2017-05-19T19:12:54.089Z,12.90
2017-05-19T19:15:27.830Z,12.80
2017-05-19T19:17:54.658Z,12.80
2017-05-19T19:20:21.383Z,12.80
2017-05-19T19:22:48.071Z,12.80
2017-05-19T19:25:14.766Z,12.80
2017-05-19T19:27:41.462Z,12.80
2017-05-19T19:30:08.143Z,12.80
2017-05-19T19:32:34.843Z,12.80
2017-05-19T19:35:01.530Z,12.80
2017-05-19T19:37:28.227Z,12.80
2017-05-19T19:39:54.936Z,12.90
2017-05-19T19:42:21.707Z,12.90
2017-05-19T19:44:48.448Z,12.90
2017-05-19T19:47:15.135Z,12.90
2017-05-19T19:49:41.828Z,12.90
2017-05-19T19:52:08.526Z,12.90
2017-05-19T19:54:35.225Z,12.90
2017-05-19T19:57:01.939Z,12.90
2017-05-19T19:59:28.640Z,12.90
2017-05-19T20:01:55.323Z,12.80
2017-05-19T20:04:22.024Z,12.90
2017-05-19T20:06:48.746Z,12.90
2017-05-19T20:09:15.483Z,12.90
2017-05-19T20:11:42.180Z,12.90
2017-05-19T20:14:08.884Z,12.90
2017-05-19T20:16:35.589Z,12.90
2017-05-19T20:19:02.279Z,12.90
2017-05-19T20:21:29.016Z,12.90
2017-05-19T20:23:55.703Z,12.90
2017-05-19T20:26:22.395Z,12.90
2017-05-19T20:28:49.180Z,12.90
2017-05-19T20:31:15.879Z,13.00
2017-05-19T20:33:42.599Z,13.00
2017-05-19T20:36:09.304Z,13.00
2017-05-19T20:38:35.996Z,13.00
2017-05-19T20:41:02.688Z,13.00
2017-05-19T20:43:29.379Z,13.00
2017-05-19T20:45:56.107Z,12.90
2017-05-19T20:48:22.796Z,12.80
2017-05-19T20:50:49.495Z,12.90
2017-05-19T20:53:16.189Z,12.90
2017-05-19T20:55:42.891Z,12.90
2017-05-19T20:58:09.616Z,12.90
2017-05-19T21:00:36.309Z,12.90
2017-05-19T21:03:02.999Z,12.90
2017-05-19T21:05:29.743Z,12.90
2017-05-19T21:07:56.502Z,13.00
2017-05-19T21:10:23.196Z,12.90
2017-05-19T21:12:49.902Z,12.90
2017-05-19T21:15:16.603Z,12.90
2017-05-19T21:17:43.287Z,12.90
2017-05-19T21:20:10.012Z,12.80
2017-05-19T21:22:36.695Z,12.70
2017-05-19T21:25:03.391Z,12.60
2017-05-19T21:27:30.107Z,12.60
2017-05-19T21:29:56.845Z,12.70
2017-05-19T21:32:23.559Z,12.70
2017-05-19T21:34:50.264Z,12.80
2017-05-19T21:37:16.963Z,12.80
2017-05-19T21:39:43.672Z,12.80
2017-05-19T21:42:10.375Z,12.70
2017-05-19T21:44:37.101Z,12.70
2017-05-19T21:47:03.790Z,12.60
2017-05-19T21:49:30.492Z,12.60
2017-05-19T21:51:57.197Z,12.50
2017-05-19T21:54:23.897Z,12.40
2017-05-19T21:56:50.606Z,12.40
2017-05-19T21:59:17.300Z,12.40
2017-05-19T22:01:44.037Z,12.30
2017-05-19T22:04:10.735Z,12.30
2017-05-19T22:06:37.431Z,12.30
2017-05-19T22:09:04.156Z,12.30
2017-05-19T22:11:30.862Z,12.20
2017-05-19T22:13:57.558Z,12.20
2017-05-19T22:16:24.255Z,12.20
2017-05-19T22:18:50.952Z,12.30
2017-05-19T22:21:17.675Z,12.30
2017-05-19T22:23:44.374Z,12.30
2017-05-19T22:26:11.179Z,12.20
2017-05-19T22:28:37.880Z,12.20
2017-05-19T22:31:04.584Z,12.20
2017-05-19T22:33:31.320Z,12.20
2017-05-19T22:35:58.006Z,12.20
2017-05-19T22:38:24.701Z,12.30
2017-05-19T22:40:51.407Z,12.30
2017-05-19T22:43:18.096Z,12.30
2017-05-19T22:45:44.818Z,12.30
2017-05-19T22:48:11.500Z,12.30
2017-05-19T22:50:38.199Z,12.30
2017-05-19T22:53:04.904Z,12.20
2017-05-19T22:55:31.596Z,12.10
2017-05-19T22:57:58.316Z,12.10
2017-05-19T23:00:25.003Z,12.20
2017-05-19T23:02:51.707Z,12.10
2017-05-19T23:05:18.415Z,12.10
2017-05-19T23:07:45.207Z,12.10
2017-05-19T23:10:11.935Z,12.10
2017-05-19T23:12:38.628Z,12.00
2017-05-19T23:15:05.330Z,12.00
2017-05-19T23:17:32.030Z,12.10
2017-05-19T23:19:58.724Z,12.20
2017-05-19T23:22:25.447Z,12.10
2017-05-19T23:24:52.137Z,12.00
2017-05-19T23:27:18.829Z,12.00
2017-05-19T23:29:45.540Z,12.10
2017-05-19T23:32:12.234Z,12.10
2017-05-19T23:34:38.946Z,12.10
2017-05-19T23:37:05.639Z,12.10
2017-05-19T23:39:32.351Z,12.10
2017-05-19T23:41:59.061Z,12.20
2017-05-19T23:44:25.757Z,12.20
2017-05-19T23:46:52.479Z,12.10
2017-05-19T23:49:19.204Z,12.00
2017-05-19T23:51:45.897Z,12.00
2017-05-19T23:54:12.597Z,12.00
2017-05-19T23:56:39.299Z,12.10
2017-05-19T23:59:06.015Z,12.10
